Time;durP1;ratioP1;P1;durP2;ratioP2;P2;SDS_P1;SDS_P2;PMS_P1;PMS_P2;Temp;Humidity;BMP_temperature;BMP_pressure;BME280_temperature;BME280_humidity;BME280_pressure;Samples;Min_cycle;Max_cycle;Signal;HPM_P1;HPM_P2
2023/11/28 00:00:23;;;;;;;18.52;13.27;;;9.30;96.70;;;;;;4914061;29;20171;-76
2023/11/28 00:02:53;;;;;;;17.55;13.75;;;9.30;96.70;;;;;;4896720;29;20051;-77
2023/11/28 00:05:22;;;;;;;18.33;13.70;;;9.30;96.70;;;;;;4900206;29;20067;-77
2023/11/28 00:07:52;;;;;;;15.95;12.90;;;9.30;96.70;;;;;;4908701;29;20044;-77
2023/11/28 00:10:24;;;;;;;14.55;12.85;;;9.30;96.70;;;;;;4900466;29;20100;-77
2023/11/28 00:12:52;;;;;;;19.48;14.10;;;9.30;96.70;;;;;;4896163;29;20057;-76
2023/11/28 00:15:22;;;;;;;14.65;12.40;;;9.20;96.70;;;;;;4905712;29;20048;-76
2023/11/28 00:17:53;;;;;;;17.20;13.02;;;9.20;96.70;;;;;;4913983;29;20040;-76
2023/11/28 00:20:22;;;;;;;20.85;13.48;;;9.20;96.70;;;;;;4884640;29;20058;-77
2023/11/28 00:22:50;;;;;;;17.95;13.25;;;9.20;96.70;;;;;;4911365;29;20044;-77
2023/11/28 00:25:18;;;;;;;17.17;13.75;;;9.20;96.70;;;;;;4906496;29;20079;-74
2023/11/28 00:27:49;;;;;;;18.73;14.25;;;9.10;96.70;;;;;;4911363;29;20754;-75
2023/11/28 00:30:17;;;;;;;18.25;13.77;;;9.10;96.70;;;;;;4888789;29;20138;-75
2023/11/28 00:32:45;;;;;;;19.55;14.07;;;9.10;96.70;;;;;;4894057;29;20056;-75
2023/11/28 00:35:14;;;;;;;15.75;12.95;;;9.10;96.70;;;;;;4903233;29;20077;-73
2023/11/28 00:37:43;;;;;;;16.70;13.45;;;9.10;96.70;;;;;;4894342;29;20092;-75
2023/11/28 00:40:12;;;;;;;15.73;13.30;;;9.10;96.70;;;;;;4890591;29;20059;-73
2023/11/28 00:42:41;;;;;;;16.90;13.35;;;9.10;96.70;;;;;;4897144;29;20698;-71
2023/11/28 00:45:12;;;;;;;18.13;13.52;;;9.10;96.70;;;;;;4894842;29;20567;-74
2023/11/28 00:47:43;;;;;;;18.13;12.18;;;9.10;96.70;;;;;;4894504;29;20044;-71
2023/11/28 00:50:12;;;;;;;15.75;12.25;;;9.10;96.70;;;;;;4902962;29;20036;-70
2023/11/28 00:52:40;;;;;;;16.90;12.00;;;9.10;96.70;;;;;;4904428;29;20048;-71
2023/11/28 00:55:10;;;;;;;16.83;12.48;;;9.10;96.70;;;;;;4913370;29;20112;-74
2023/11/28 00:57:38;;;;;;;16.52;12.35;;;9.10;96.70;;;;;;4893260;29;20040;-73
2023/11/28 01:00:07;;;;;;;15.40;11.43;;;9.20;96.70;;;;;;4898238;29;20534;-74
2023/11/28 01:02:37;;;;;;;15.68;11.52;;;9.20;96.70;;;;;;4898112;29;20449;-74
2023/11/28 01:05:10;;;;;;;14.13;11.80;;;9.20;96.70;;;;;;4914741;29;20127;-73
2023/11/28 01:07:38;;;;;;;14.93;11.68;;;9.20;96.70;;;;;;4904646;29;20342;-72
2023/11/28 01:10:08;;;;;;;16.45;12.45;;;9.20;96.70;;;;;;4902902;29;20127;-73
2023/11/28 01:12:37;;;;;;;16.00;13.02;;;9.30;96.70;;;;;;4920580;29;20543;-73
2023/11/28 01:15:08;;;;;;;15.25;12.68;;;9.30;96.70;;;;;;4913426;29;20047;-72
2023/11/28 01:17:40;;;;;;;15.48;12.32;;;9.30;96.70;;;;;;4915578;29;20055;-76
2023/11/28 01:20:09;;;;;;;15.85;11.90;;;9.30;96.70;;;;;;4916655;29;20044;-75
2023/11/28 01:22:38;;;;;;;16.48;12.75;;;9.30;96.70;;;;;;4908730;29;20145;-73
2023/11/28 01:25:07;;;;;;;15.80;11.55;;;9.30;96.70;;;;;;4909873;29;20116;-75
2023/11/28 01:27:36;;;;;;;14.98;12.32;;;9.30;96.70;;;;;;4893981;29;20385;-74
2023/11/28 01:30:05;;;;;;;15.73;12.73;;;9.30;96.70;;;;;;4896918;29;20062;-74
2023/11/28 01:32:35;;;;;;;14.70;11.93;;;9.30;96.70;;;;;;4916956;29;20508;-74
2023/11/28 01:35:08;;;;;;;13.30;11.57;;;9.20;96.70;;;;;;4906247;29;20044;-74
2023/11/28 01:37:37;;;;;;;15.43;12.23;;;9.20;96.70;;;;;;4897768;29;20072;-74
2023/11/28 01:40:08;;;;;;;13.40;11.48;;;9.20;96.70;;;;;;4889124;29;20052;-73
2023/11/28 01:42:36;;;;;;;17.05;12.95;;;9.20;96.70;;;;;;4905896;29;20048;-75
2023/11/28 01:45:08;;;;;;;13.98;11.68;;;9.20;96.70;;;;;;4903093;29;20119;-73
2023/11/28 01:47:37;;;;;;;14.07;11.57;;;9.30;96.70;;;;;;4923743;29;20331;-74
2023/11/28 01:50:09;;;;;;;14.05;11.70;;;9.20;96.70;;;;;;4914279;29;20103;-74
2023/11/28 01:52:39;;;;;;;15.98;12.57;;;9.20;96.70;;;;;;4905063;29;20075;-74
2023/11/28 01:55:09;;;;;;;16.42;12.05;;;9.30;96.70;;;;;;4898429;29;20052;-74
2023/11/28 01:57:38;;;;;;;14.80;12.55;;;9.20;96.70;;;;;;4905970;29;20715;-73
2023/11/28 02:00:09;;;;;;;16.35;11.85;;;9.20;96.70;;;;;;4891549;29;20075;-74
2023/11/28 02:02:41;;;;;;;14.10;11.50;;;9.20;96.70;;;;;;4911830;29;20056;-74
2023/11/28 02:05:12;;;;;;;16.30;11.35;;;9.20;96.70;;;;;;4912600;29;20045;-74
2023/11/28 02:07:42;;;;;;;13.98;12.25;;;9.20;96.70;;;;;;4905988;29;20048;-74
2023/11/28 02:10:11;;;;;;;14.40;11.70;;;9.20;96.70;;;;;;4889113;29;20511;-75
2023/11/28 02:12:43;;;;;;;15.60;12.25;;;9.20;96.70;;;;;;4913878;29;20052;-74
2023/11/28 02:15:11;;;;;;;13.77;10.90;;;9.20;96.70;;;;;;4914276;29;20369;-74
2023/11/28 02:17:40;;;;;;;13.75;11.20;;;9.20;96.70;;;;;;4896361;29;20143;-74
2023/11/28 02:20:10;;;;;;;13.32;11.02;;;9.20;96.70;;;;;;4913777;29;20052;-74
2023/11/28 02:22:40;;;;;;;11.73;10.07;;;9.30;96.70;;;;;;4913361;29;20064;-74
2023/11/28 02:25:09;;;;;;;13.77;10.57;;;9.20;96.70;;;;;;4896767;29;20543;-74
2023/11/28 02:27:39;;;;;;;11.98;9.45;;;9.30;96.70;;;;;;4905959;29;20045;-74
2023/11/28 02:30:08;;;;;;;11.75;9.88;;;9.30;96.70;;;;;;4905083;29;20059;-75
2023/11/28 02:32:38;;;;;;;11.90;9.95;;;9.30;96.70;;;;;;4913706;29;20139;-73
2023/11/28 02:35:08;;;;;;;11.35;9.93;;;9.30;96.70;;;;;;4896434;29;20080;-74
2023/11/28 02:37:50;;;;;;;13.40;10.48;;;9.30;96.70;;;;;;4913328;29;20040;-74
2023/11/28 02:40:19;;;;;;;11.85;9.75;;;9.30;96.70;;;;;;4913280;29;20119;-75
2023/11/28 02:42:49;;;;;;;13.73;10.02;;;9.30;96.70;;;;;;4911348;29;20143;-71
2023/11/28 02:45:18;;;;;;;13.40;9.75;;;9.30;96.70;;;;;;4907586;29;20052;-72
2023/11/28 02:47:46;;;;;;;12.70;9.68;;;9.40;96.70;;;;;;4909880;29;20049;-74
2023/11/28 02:50:15;;;;;;;15.50;10.20;;;9.40;96.70;;;;;;4893943;29;20485;-73
2023/11/28 02:52:43;;;;;;;13.07;10.05;;;9.40;96.70;;;;;;4911688;29;20389;-73
2023/11/28 02:55:12;;;;;;;13.60;10.15;;;9.40;96.70;;;;;;4905653;29;20117;-74
2023/11/28 02:57:40;;;;;;;13.43;9.52;;;9.30;96.70;;;;;;4910368;29;20539;-74
2023/11/28 03:00:11;;;;;;;12.98;9.07;;;9.30;96.70;;;;;;4904004;29;20104;-74
2023/11/28 03:02:40;;;;;;;10.38;8.02;;;9.30;96.70;;;;;;4892849;29;20056;-75
2023/11/28 03:05:08;;;;;;;11.50;9.00;;;9.40;96.70;;;;;;4905586;29;20378;-72
2023/11/28 03:07:37;;;;;;;12.32;9.15;;;9.40;96.70;;;;;;4895976;29;20071;-74
2023/11/28 03:10:06;;;;;;;11.30;9.70;;;9.40;96.70;;;;;;4913028;29;20096;-74
2023/11/28 03:12:36;;;;;;;14.23;9.73;;;9.40;96.70;;;;;;4894351;29;20048;-73
2023/11/28 03:15:05;;;;;;;12.68;10.05;;;9.30;96.70;;;;;;4912707;29;20059;-75
2023/11/28 03:17:35;;;;;;;10.85;9.63;;;9.30;96.70;;;;;;4887350;29;20056;-74
2023/11/28 03:20:05;;;;;;;10.50;9.40;;;9.30;96.70;;;;;;4912068;29;20143;-74
2023/11/28 03:22:33;;;;;;;10.65;9.13;;;9.30;96.70;;;;;;4909154;29;20048;-73
2023/11/28 03:25:07;;;;;;;11.27;9.07;;;9.30;96.70;;;;;;4912402;29;20083;-73
2023/11/28 03:27:36;;;;;;;12.98;9.40;;;9.40;96.70;;;;;;4914948;29;20040;-74
2023/11/28 03:30:05;;;;;;;14.52;9.30;;;9.40;96.70;;;;;;4896705;29;20040;-74
2023/11/28 03:32:37;;;;;;;9.60;8.43;;;9.40;96.70;;;;;;4904379;29;20052;-74
2023/11/28 03:35:07;;;;;;;12.15;9.25;;;9.40;96.70;;;;;;4904184;29;20044;-74
2023/11/28 03:37:35;;;;;;;9.70;8.30;;;9.40;96.70;;;;;;4912502;29;20037;-74
2023/11/28 03:40:06;;;;;;;12.35;8.77;;;9.40;96.70;;;;;;4904384;29;20052;-74
2023/11/28 03:42:34;;;;;;;12.32;8.52;;;9.40;96.70;;;;;;4911994;29;20127;-70
2023/11/28 03:45:04;;;;;;;12.18;7.88;;;9.40;96.70;;;;;;4893930;29;20139;-75
2023/11/28 03:47:33;;;;;;;10.07;8.15;;;9.40;96.70;;;;;;4903233;29;20124;-74
2023/11/28 03:50:03;;;;;;;11.85;8.40;;;9.40;96.70;;;;;;4904917;29;20072;-75
2023/11/28 03:52:32;;;;;;;12.82;8.10;;;9.40;96.70;;;;;;4889533;29;20057;-73
2023/11/28 03:55:01;;;;;;;9.93;7.93;;;9.30;96.70;;;;;;4925077;29;20040;-74
2023/11/28 03:57:30;;;;;;;10.80;8.18;;;9.30;96.70;;;;;;4910661;29;20083;-74
2023/11/28 03:59:59;;;;;;;9.32;7.32;;;9.30;96.70;;;;;;4903884;29;20107;-74
2023/11/28 04:02:27;;;;;;;9.60;7.40;;;9.40;96.70;;;;;;4905050;29;20040;-75
2023/11/28 04:04:56;;;;;;;9.80;8.15;;;9.40;96.70;;;;;;4906673;29;20408;-75
2023/11/28 04:07:26;;;;;;;10.18;7.55;;;9.40;96.70;;;;;;4894497;29;20145;-73
2023/11/28 04:09:54;;;;;;;10.32;8.13;;;9.40;96.70;;;;;;4911072;29;20048;-73
2023/11/28 04:12:22;;;;;;;11.98;7.68;;;9.30;96.70;;;;;;4909212;29;20059;-75
2023/11/28 04:14:52;;;;;;;10.35;7.90;;;9.30;96.70;;;;;;4915973;29;20056;-73
2023/11/28 04:17:21;;;;;;;14.23;9.27;;;9.30;96.70;;;;;;4909074;29;20746;-74
2023/11/28 04:19:49;;;;;;;12.57;8.30;;;9.30;96.70;;;;;;4909412;29;20901;-75
2023/11/28 04:22:20;;;;;;;11.13;7.90;;;9.30;96.70;;;;;;4911145;29;20374;-71
2023/11/28 04:24:54;;;;;;;11.80;8.23;;;9.30;96.70;;;;;;4907940;29;20068;-74
2023/11/28 04:27:24;;;;;;;10.85;8.48;;;9.30;96.70;;;;;;4912904;29;20091;-74
2023/11/28 04:29:52;;;;;;;9.60;7.72;;;9.30;96.70;;;;;;4899042;29;20143;-73
2023/11/28 04:32:20;;;;;;;9.98;7.63;;;9.30;96.70;;;;;;4916158;29;20040;-74
2023/11/28 04:34:49;;;;;;;15.57;8.02;;;9.30;96.70;;;;;;4888358;29;20041;-74
2023/11/28 04:37:20;;;;;;;11.18;8.25;;;9.30;96.70;;;;;;4906281;29;20055;-74
2023/11/28 04:39:54;;;;;;;9.85;7.50;;;9.30;96.70;;;;;;4928670;29;20508;-73
2023/11/28 04:42:22;;;;;;;10.00;7.50;;;9.30;96.70;;;;;;4889042;29;20075;-74
2023/11/28 04:44:51;;;;;;;12.55;8.55;;;9.30;96.70;;;;;;4913725;29;20067;-73
2023/11/28 04:47:19;;;;;;;14.32;9.05;;;9.30;96.70;;;;;;4891023;29;20111;-72
2023/11/28 04:49:48;;;;;;;10.95;8.98;;;9.30;96.70;;;;;;4895684;29;20044;-72
2023/11/28 04:52:16;;;;;;;11.77;8.82;;;9.30;96.70;;;;;;4908699;29;20519;-74
2023/11/28 04:54:46;;;;;;;12.50;9.55;;;9.20;96.70;;;;;;4896741;29;20408;-73
2023/11/28 04:57:19;;;;;;;13.43;9.30;;;9.20;96.70;;;;;;4914068;29;20044;-73
2023/11/28 04:59:49;;;;;;;10.80;8.98;;;9.20;96.70;;;;;;4892092;29;20054;-74
2023/11/28 05:02:18;;;;;;;11.25;9.25;;;9.20;96.70;;;;;;4900718;29;20123;-72
2023/11/28 05:04:48;;;;;;;13.48;9.65;;;9.20;96.70;;;;;;4912705;29;20108;-74
2023/11/28 05:07:18;;;;;;;11.48;8.80;;;9.20;96.70;;;;;;4915050;29;20445;-74
2023/11/28 05:09:47;;;;;;;12.07;8.45;;;9.20;96.70;;;;;;4929365;29;20055;-74
2023/11/28 05:12:15;;;;;;;9.80;8.43;;;9.20;96.70;;;;;;4914438;29;20421;-74
2023/11/28 05:14:46;;;;;;;9.52;8.52;;;9.20;96.70;;;;;;4898538;29;20072;-74
2023/11/28 05:17:15;;;;;;;9.25;7.80;;;9.10;96.70;;;;;;4893103;29;20680;-73
2023/11/28 05:19:43;;;;;;;10.10;8.27;;;9.10;96.70;;;;;;4905485;29;20048;-74
2023/11/28 05:22:12;;;;;;;9.68;8.05;;;9.00;96.70;;;;;;4895674;29;20079;-73
2023/11/28 05:24:42;;;;;;;9.90;7.68;;;9.00;96.70;;;;;;4893266;29;20076;-73
2023/11/28 05:27:12;;;;;;;11.88;8.40;;;9.00;96.70;;;;;;4895844;29;20048;-74
2023/11/28 05:29:41;;;;;;;12.25;8.15;;;9.00;96.70;;;;;;4894634;29;20052;-73
2023/11/28 05:32:12;;;;;;;11.88;8.73;;;9.00;96.70;;;;;;4915332;29;20092;-73
2023/11/28 05:34:41;;;;;;;12.60;10.15;;;9.00;96.70;;;;;;4889324;29;20055;-74
2023/11/28 05:37:09;;;;;;;10.52;8.13;;;8.90;96.70;;;;;;4886862;29;20044;-74
2023/11/28 05:39:39;;;;;;;10.70;8.70;;;8.90;96.70;;;;;;4885134;29;20048;-74
2023/11/28 05:42:07;;;;;;;11.68;9.10;;;8.90;96.70;;;;;;4888256;29;20501;-74
2023/11/28 05:44:36;;;;;;;13.10;9.30;;;9.00;96.70;;;;;;4894146;29;20052;-73
2023/11/28 05:47:08;;;;;;;13.13;8.82;;;9.00;96.70;;;;;;4889792;29;20032;-74
2023/11/28 05:49:38;;;;;;;11.55;9.38;;;9.00;96.70;;;;;;4894946;29;20087;-74
2023/11/28 05:52:07;;;;;;;20.15;10.63;;;9.10;96.70;;;;;;4893867;29;20076;-74
2023/11/28 05:54:35;;;;;;;33.55;10.20;;;9.10;96.70;;;;;;4894564;29;20049;-73
2023/11/28 05:57:04;;;;;;;62.00;12.05;;;9.00;96.70;;;;;;4889721;29;20476;-74
2023/11/28 05:59:32;;;;;;;59.90;11.57;;;9.00;96.70;;;;;;4892761;29;20059;-74
2023/11/28 06:02:03;;;;;;;53.30;11.32;;;9.00;96.70;;;;;;4894867;29;20060;-73
2023/11/28 06:04:34;;;;;;;35.08;11.00;;;9.00;96.70;;;;;;4917658;29;20440;-70
2023/11/28 06:07:06;;;;;;;28.13;9.63;;;9.00;96.70;;;;;;4893408;29;20544;-74
2023/11/28 06:09:36;;;;;;;37.17;10.25;;;9.00;96.70;;;;;;4893249;29;20052;-73
2023/11/28 06:12:06;;;;;;;18.25;8.82;;;9.00;96.70;;;;;;4895745;29;20135;-74
2023/11/28 06:14:35;;;;;;;19.30;9.43;;;9.00;96.70;;;;;;4887147;29;20055;-74
2023/11/28 06:17:04;;;;;;;29.30;9.52;;;9.10;96.70;;;;;;4893081;29;20063;-73
2023/11/28 06:19:34;;;;;;;12.65;9.23;;;9.10;96.70;;;;;;4893869;29;20052;-73
2023/11/28 06:22:03;;;;;;;14.18;8.57;;;9.10;96.70;;;;;;4893627;29;20068;-73
2023/11/28 06:24:34;;;;;;;41.08;9.48;;;9.10;96.70;;;;;;4892609;29;20064;-73
2023/11/28 06:27:02;;;;;;;59.85;9.20;;;9.10;96.70;;;;;;4912627;29;20103;-74
2023/11/28 06:29:30;;;;;;;27.25;8.25;;;9.10;96.70;;;;;;4907294;29;20036;-74
2023/11/28 06:31:59;;;;;;;36.25;8.75;;;9.10;96.70;;;;;;4911853;29;20044;-73
2023/11/28 06:34:27;;;;;;;31.63;8.57;;;9.10;96.70;;;;;;4913472;29;20595;-73
2023/11/28 06:36:56;;;;;;;31.52;9.10;;;9.10;96.70;;;;;;4895788;29;20563;-73
2023/11/28 06:39:26;;;;;;;38.88;8.63;;;9.10;96.70;;;;;;4913632;29;20040;-72
2023/11/28 06:41:56;;;;;;;24.98;7.40;;;9.10;96.70;;;;;;4909678;29;20112;-73
2023/11/28 06:44:26;;;;;;;14.43;7.30;;;9.10;96.70;;;;;;4913404;29;20351;-73
2023/11/28 06:46:55;;;;;;;36.13;7.75;;;9.10;96.70;;;;;;4909650;29;20049;-73
2023/11/28 06:49:25;;;;;;;17.15;7.68;;;9.20;96.70;;;;;;4913337;29;20048;-69
2023/11/28 06:51:54;;;;;;;45.17;8.48;;;9.20;96.70;;;;;;4903886;29;20052;-72
2023/11/28 06:54:22;;;;;;;63.63;9.00;;;9.20;96.70;;;;;;4903474;29;20548;-73
2023/11/28 06:56:50;;;;;;;44.85;8.68;;;9.20;96.70;;;;;;4906623;29;20107;-72
2023/11/28 06:59:20;;;;;;;14.85;7.63;;;9.20;96.70;;;;;;4905383;29;20099;-73
2023/11/28 07:01:51;;;;;;;18.15;7.65;;;9.20;96.70;;;;;;4902460;29;20048;-73
2023/11/28 07:04:20;;;;;;;28.45;8.48;;;9.20;96.70;;;;;;4912914;29;20070;-74
2023/11/28 07:06:49;;;;;;;27.70;9.35;;;9.30;96.70;;;;;;4896249;29;20041;-74
2023/11/28 07:09:17;;;;;;;14.20;8.00;;;9.20;96.70;;;;;;4905053;29;20052;-74
2023/11/28 07:11:45;;;;;;;12.57;7.57;;;9.20;96.70;;;;;;4908349;29;20104;-74
2023/11/28 07:14:14;;;;;;;17.00;7.78;;;9.20;96.70;;;;;;4908617;29;20047;-73
2023/11/28 07:16:43;;;;;;;22.92;8.63;;;9.20;96.70;;;;;;4912584;29;20568;-75
2023/11/28 07:19:12;;;;;;;26.40;9.70;;;9.20;96.70;;;;;;4904005;29;20136;-73
2023/11/28 07:21:40;;;;;;;11.07;7.75;;;9.20;96.70;;;;;;4896246;29;20657;-74
2023/11/28 07:24:08;;;;;;;21.80;9.18;;;9.20;96.70;;;;;;4909139;29;20045;-74
2023/11/28 07:26:37;;;;;;;27.10;10.60;;;9.30;96.70;;;;;;4907980;29;20404;-74
2023/11/28 07:29:06;;;;;;;17.80;9.95;;;9.30;96.70;;;;;;4904876;29;20048;-73
2023/11/28 07:31:34;;;;;;;34.88;10.57;;;9.30;96.70;;;;;;4909461;29;20044;-71
2023/11/28 07:34:05;;;;;;;24.73;9.32;;;9.30;96.70;;;;;;4908822;29;20051;-73
2023/11/28 07:36:34;;;;;;;19.15;9.20;;;9.30;96.70;;;;;;4912000;29;20643;-73
2023/11/28 07:39:03;;;;;;;17.38;10.35;;;9.40;96.70;;;;;;4908685;29;20049;-75
2023/11/28 07:41:32;;;;;;;23.98;11.55;;;9.40;96.70;;;;;;4909662;29;20078;-74
2023/11/28 07:44:00;;;;;;;24.15;10.73;;;9.40;96.70;;;;;;4912936;29;20044;-73
2023/11/28 07:46:29;;;;;;;26.38;11.65;;;9.40;96.70;;;;;;4913619;29;20048;-74
2023/11/28 07:48:58;;;;;;;41.58;12.27;;;9.40;96.70;;;;;;4914078;29;20047;-74
2023/11/28 07:51:28;;;;;;;18.98;9.63;;;9.40;96.70;;;;;;4914425;29;20130;-76
2023/11/28 07:53:58;;;;;;;18.92;9.70;;;9.30;96.70;;;;;;4913793;29;20099;-74
2023/11/28 07:56:26;;;;;;;39.85;11.05;;;9.40;96.70;;;;;;4913866;29;20044;-76
2023/11/28 07:59:02;;;;;;;31.08;11.73;;;9.40;96.70;;;;;;4905898;29;20071;-75
2023/11/28 08:01:31;;;;;;;50.88;13.75;;;9.50;96.70;;;;;;4910798;29;20052;-76
2023/11/28 08:03:59;;;;;;;37.85;16.63;;;9.50;96.70;;;;;;4909851;29;20051;-76
2023/11/28 08:06:30;;;;;;;42.55;17.08;;;9.50;96.70;;;;;;4898045;29;20051;-77
2023/11/28 08:08:58;;;;;;;36.08;15.52;;;9.50;96.70;;;;;;4906099;29;20123;-77
2023/11/28 08:11:27;;;;;;;36.42;17.08;;;9.50;96.70;;;;;;4905604;29;20103;-77
2023/11/28 08:13:56;;;;;;;35.42;16.17;;;9.70;96.70;;;;;;4914495;29;20535;-74
2023/11/28 08:16:24;;;;;;;50.80;20.25;;;9.80;96.70;;;;;;4913589;29;20066;-74
2023/11/28 08:18:53;;;;;;;40.25;17.58;;;9.80;96.70;;;;;;4912312;29;20044;-73
2023/11/28 08:21:22;;;;;;;33.65;16.58;;;9.80;96.70;;;;;;4912142;29;20048;-74
2023/11/28 08:23:52;;;;;;;31.73;14.88;;;9.80;96.70;;;;;;4911551;29;20448;-73
2023/11/28 08:26:20;;;;;;;35.47;14.50;;;9.90;96.70;;;;;;4902074;29;20528;-69
2023/11/28 08:28:49;;;;;;;21.05;13.00;;;9.90;96.70;;;;;;4907010;29;20056;-73
2023/11/28 08:31:18;;;;;;;25.42;12.55;;;9.90;96.70;;;;;;4910780;29;20100;-69
2023/11/28 08:33:47;;;;;;;24.50;11.82;;;9.90;96.70;;;;;;4904612;29;20055;-71
2023/11/28 08:36:16;;;;;;;27.80;13.93;;;10.00;96.70;;;;;;4910025;29;20119;-70
2023/11/28 08:38:44;;;;;;;25.58;12.88;;;10.20;96.70;;;;;;4906038;29;20824;-73
2023/11/28 08:41:14;;;;;;;23.95;12.52;;;10.30;96.70;;;;;;4912932;29;20095;-74
2023/11/28 08:44:10;;;;;;;26.50;13.05;;;10.30;96.70;;;;;;4909528;29;20690;-76
2023/11/28 08:46:39;;;;;;;21.98;12.18;;;10.30;96.70;;;;;;4905477;29;20048;-76
2023/11/28 08:49:09;;;;;;;20.55;12.23;;;10.40;96.70;;;;;;4908782;29;20055;-77
2023/11/28 08:51:40;;;;;;;17.38;11.10;;;10.50;96.70;;;;;;4909638;29;20056;-75
2023/11/28 08:54:10;;;;;;;17.48;11.65;;;10.50;96.70;;;;;;4906816;29;20646;-70
2023/11/28 08:56:40;;;;;;;17.55;12.57;;;10.70;96.70;;;;;;4909485;29;20044;-69
2023/11/28 08:59:09;;;;;;;21.63;12.50;;;10.90;96.70;;;;;;4910008;29;20047;-72
2023/11/28 09:01:40;;;;;;;18.48;11.88;;;11.10;96.70;;;;;;4911062;29;20044;-73
2023/11/28 09:04:09;;;;;;;20.30;12.13;;;11.20;96.70;;;;;;4903328;29;20047;-73
2023/11/28 09:06:40;;;;;;;16.85;11.52;;;11.20;96.70;;;;;;4910637;29;20047;-71
2023/11/28 09:09:09;;;;;;;15.63;11.32;;;11.30;96.70;;;;;;4910264;29;20046;-72
2023/11/28 09:11:39;;;;;;;17.40;11.23;;;11.40;96.70;;;;;;4903031;29;20759;-72
2023/11/28 09:14:07;;;;;;;18.90;10.63;;;11.40;96.70;;;;;;4917618;29;20587;-71
2023/11/28 09:16:40;;;;;;;15.05;10.35;;;11.50;96.70;;;;;;4913158;29;20067;-72
2023/11/28 09:19:08;;;;;;;14.45;10.00;;;11.50;96.70;;;;;;4914419;29;20033;-69
2023/11/28 09:21:38;;;;;;;13.45;10.75;;;11.60;96.70;;;;;;4914581;29;20052;-71
2023/11/28 09:24:08;;;;;;;16.15;10.95;;;11.70;96.70;;;;;;4912505;29;20505;-69
2023/11/28 09:26:36;;;;;;;15.55;10.52;;;11.80;96.70;;;;;;4902055;29;20569;-72
2023/11/28 09:29:06;;;;;;;14.55;11.30;;;11.90;96.70;;;;;;4908975;29;20142;-71
2023/11/28 09:31:36;;;;;;;18.55;11.95;;;12.00;96.70;;;;;;4912010;29;20052;-71
2023/11/28 09:34:04;;;;;;;16.13;10.32;;;12.20;96.70;;;;;;4912277;29;20075;-71
2023/11/28 09:36:33;;;;;;;18.73;11.85;;;12.20;96.70;;;;;;4903265;29;20096;-71
2023/11/28 09:39:05;;;;;;;17.70;11.48;;;12.20;96.70;;;;;;4912492;29;20040;-71
2023/11/28 09:41:35;;;;;;;17.50;12.60;;;12.20;96.70;;;;;;4913022;29;20044;-70
2023/11/28 09:44:26;;;;;;;17.05;12.93;;;12.20;96.70;;;;;;4912740;29;20044;-71
2023/11/28 09:47:01;;;;;;;19.98;14.10;;;12.20;96.70;;;;;;4905033;29;20518;-73
2023/11/28 09:49:36;;;;;;;23.67;15.53;;;12.20;96.70;;;;;;4910668;29;20096;-73
2023/11/28 09:52:07;;;;;;;23.45;15.23;;;12.20;96.70;;;;;;4903784;29;20062;-74
2023/11/28 09:54:38;;;;;;;24.70;15.15;;;12.20;96.70;;;;;;4912762;29;20055;-75
2023/11/28 09:57:07;;;;;;;25.90;16.52;;;12.30;96.70;;;;;;4914019;29;20032;-75
2023/11/28 09:59:38;;;;;;;25.20;15.98;;;12.40;96.70;;;;;;4913899;29;20044;-78
2023/11/28 10:02:15;;;;;;;28.05;18.45;;;12.40;96.70;;;;;;4913862;29;20044;-72
2023/11/28 10:04:45;;;;;;;30.05;17.17;;;12.40;96.70;;;;;;4909991;29;20044;-75
2023/11/28 10:07:16;;;;;;;28.25;17.63;;;12.50;96.70;;;;;;4913433;29;20048;-75
2023/11/28 10:09:49;;;;;;;23.48;15.45;;;12.50;96.70;;;;;;4912991;29;20051;-75
2023/11/28 10:12:20;;;;;;;23.20;14.90;;;12.60;96.70;;;;;;4906339;29;20040;-73
2023/11/28 10:14:52;;;;;;;23.00;15.10;;;12.60;96.70;;;;;;4904786;29;20076;-73
2023/11/28 10:17:22;;;;;;;18.27;12.35;;;12.70;96.70;;;;;;4909331;29;20040;-74
2023/11/28 10:19:51;;;;;;;18.38;12.68;;;12.70;96.70;;;;;;4910539;29;20111;-74
2023/11/28 10:22:19;;;;;;;18.67;13.07;;;12.80;96.70;;;;;;4905717;29;20040;-74
2023/11/28 10:24:48;;;;;;;18.20;11.73;;;12.80;96.70;;;;;;4844328;29;1750591;-75
2023/11/28 10:27:17;;;;;;;17.30;11.27;;;12.90;96.70;;;;;;4909438;29;20392;-75
2023/11/28 10:29:45;;;;;;;17.20;11.15;;;13.00;96.70;;;;;;4910668;29;20044;-75
2023/11/28 10:32:15;;;;;;;17.10;10.80;;;13.10;96.70;;;;;;4911699;29;20521;-75
2023/11/28 10:34:55;;;;;;;19.83;10.98;;;13.20;96.70;;;;;;4908977;29;20135;-75
2023/11/28 10:37:25;;;;;;;20.70;11.20;;;13.30;96.70;;;;;;4913788;29;20416;-72
2023/11/28 10:39:54;;;;;;;22.77;11.30;;;13.30;96.70;;;;;;4904378;29;20042;-73
2023/11/28 10:42:23;;;;;;;20.80;10.00;;;13.40;96.70;;;;;;4905754;29;20505;-69
2023/11/28 10:44:54;;;;;;;18.10;10.20;;;13.50;96.70;;;;;;4912851;29;20119;-72
2023/11/28 10:47:35;;;;;;;18.15;10.65;;;13.50;96.70;;;;;;4890259;29;20400;-74
2023/11/28 10:50:05;;;;;;;14.75;10.27;;;13.40;96.70;;;;;;4910292;29;20040;-73
2023/11/28 10:52:37;;;;;;;14.50;10.10;;;13.40;96.70;;;;;;4904785;29;20111;-74
2023/11/28 10:55:09;;;;;;;11.70;8.90;;;13.40;96.70;;;;;;4900513;29;20047;-69
2023/11/28 10:57:48;;;;;;;16.13;10.25;;;13.40;96.70;;;;;;4909845;29;20048;-72
2023/11/28 11:00:21;;;;;;;18.10;10.25;;;13.40;96.70;;;;;;4912712;29;20052;-74
2023/11/28 11:02:52;;;;;;;13.35;8.98;;;13.40;96.70;;;;;;4897787;29;20059;-73
2023/11/28 11:05:21;;;;;;;13.40;9.35;;;13.50;96.70;;;;;;4912492;29;20147;-72
2023/11/28 11:07:50;;;;;;;14.25;9.30;;;13.50;96.70;;;;;;4912700;29;20040;-74
2023/11/28 11:10:20;;;;;;;16.02;9.93;;;13.60;96.70;;;;;;4904756;29;20051;-73
2023/11/28 11:12:56;;;;;;;13.30;9.40;;;13.70;96.70;;;;;;4903691;29;20050;-72
2023/11/28 11:15:31;;;;;;;15.60;9.15;;;13.80;96.70;;;;;;4887149;29;20065;-67
2023/11/28 11:18:12;;;;;;;16.27;9.75;;;13.60;96.70;;;;;;4884438;29;20067;-74
2023/11/28 11:20:44;;;;;;;16.15;8.90;;;13.70;96.70;;;;;;4911530;29;20063;-73
2023/11/28 11:23:15;;;;;;;12.55;8.60;;;13.80;96.70;;;;;;4912614;29;20063;-73
2023/11/28 11:25:50;;;;;;;13.50;9.32;;;13.90;96.70;;;;;;4911803;29;20531;-72
2023/11/28 11:28:20;;;;;;;12.63;8.10;;;14.00;96.70;;;;;;4912515;29;20044;-75
2023/11/28 11:30:48;;;;;;;13.60;8.68;;;14.10;96.70;;;;;;4906265;29;20265;-75
2023/11/28 11:33:24;;;;;;;20.08;9.35;;;14.20;96.70;;;;;;4914815;29;20135;-75
2023/11/28 11:36:07;;;;;;;32.43;11.13;;;14.30;96.70;;;;;;4914190;29;20043;-74
2023/11/28 11:38:37;;;;;;;14.02;9.05;;;14.50;96.70;;;;;;4914835;29;20284;-74
2023/11/28 11:41:09;;;;;;;11.77;8.07;;;14.70;96.70;;;;;;4914073;29;20044;-76
2023/11/28 11:43:45;;;;;;;14.05;7.15;;;14.80;96.70;;;;;;4906857;29;20044;-78
2023/11/28 11:46:21;;;;;;;12.75;7.03;;;14.70;96.70;;;;;;4906082;29;20057;-78
2023/11/28 11:48:55;;;;;;;9.90;6.93;;;14.60;96.70;;;;;;4910543;29;20052;-76
2023/11/28 11:51:32;;;;;;;13.48;5.88;;;14.60;96.70;;;;;;4910998;29;20048;-78
2023/11/28 11:54:05;;;;;;;9.57;4.95;;;14.50;96.70;;;;;;4913855;29;20054;-76
2023/11/28 11:56:34;;;;;;;9.60;5.07;;;14.30;96.70;;;;;;4917627;29;20134;-74
2023/11/28 11:59:03;;;;;;;8.35;4.47;;;14.40;96.70;;;;;;4908490;29;20404;-75
2023/11/28 12:01:32;;;;;;;8.18;4.15;;;14.70;96.70;;;;;;4899493;29;20520;-74
2023/11/28 12:04:03;;;;;;;11.30;4.07;;;14.90;96.70;;;;;;4911457;29;20048;-73
2023/11/28 12:06:31;;;;;;;7.72;2.47;;;15.10;96.70;;;;;;4911574;29;20054;-73
2023/11/28 12:09:00;;;;;;;5.57;2.47;;;15.10;96.70;;;;;;4894387;29;20045;-71
2023/11/28 12:11:29;;;;;;;4.63;1.88;;;14.70;96.70;;;;;;4889057;29;20064;-71
2023/11/28 12:14:00;;;;;;;8.32;1.80;;;14.40;96.70;;;;;;4911842;29;20051;-71
2023/11/28 12:16:29;;;;;;;7.55;2.00;;;14.40;96.70;;;;;;4909805;29;20044;-70
2023/11/28 12:19:02;;;;;;;3.75;1.60;;;14.70;96.70;;;;;;4910447;29;20063;-72
2023/11/28 12:21:30;;;;;;;6.50;1.85;;;14.70;96.70;;;;;;4911296;29;20123;-71
2023/11/28 12:23:59;;;;;;;6.07;2.20;;;14.80;96.70;;;;;;4912177;29;20047;-74
2023/11/28 12:26:27;;;;;;;8.15;2.50;;;15.00;96.70;;;;;;4905087;29;20055;-73
2023/11/28 12:29:00;;;;;;;6.47;1.88;;;15.10;96.70;;;;;;4912853;29;20048;-73
2023/11/28 12:31:29;;;;;;;6.90;2.22;;;15.20;96.70;;;;;;4913464;29;20127;-73
2023/11/28 12:34:01;;;;;;;6.22;1.65;;;15.40;96.70;;;;;;4904438;29;20114;-74
2023/11/28 12:36:30;;;;;;;8.93;2.40;;;15.40;96.70;;;;;;4899341;29;20539;-73
2023/11/28 12:39:01;;;;;;;6.82;1.85;;;15.40;96.70;;;;;;4898765;29;20132;-73
2023/11/28 12:41:34;;;;;;;6.95;2.35;;;15.50;96.70;;;;;;4903864;29;20068;-73
2023/11/28 12:44:09;;;;;;;7.95;1.40;;;15.60;96.70;;;;;;4913052;29;20051;-74
2023/11/28 12:46:38;;;;;;;5.90;1.88;;;15.60;96.70;;;;;;4913150;29;20177;-73
2023/11/28 12:49:10;;;;;;;9.18;1.70;;;15.60;96.70;;;;;;4911799;29;20098;-75
2023/11/28 12:51:38;;;;;;;5.50;1.27;;;15.50;96.70;;;;;;4916451;29;20177;-75
2023/11/28 12:54:07;;;;;;;5.57;1.67;;;15.70;96.70;;;;;;4916807;29;20067;-73